sensor_id;sensor_type;location;lat;lon;timestamp;temperature;humidity
80132;SHT30;69442;51.442;10.564;2024-01-11T00:02:16;-7.02;74.82
80132;SHT30;69442;51.442;10.564;2024-01-11T00:04:43;-6.99;75.25
80132;SHT30;69442;51.442;10.564;2024-01-11T00:07:09;-7.02;74.92
80132;SHT30;69442;51.442;10.564;2024-01-11T00:09:42;-6.95;75.18
80132;SHT30;69442;51.442;10.564;2024-01-11T00:12:08;-6.94;75.51
80132;SHT30;69442;51.442;10.564;2024-01-11T00:14:34;-6.98;74.91
80132;SHT30;69442;51.442;10.564;2024-01-11T00:17:00;-7.01;74.80
80132;SHT30;69442;51.442;10.564;2024-01-11T00:19:25;-7.05;74.83
80132;SHT30;69442;51.442;10.564;2024-01-11T00:21:51;-6.98;75.71
80132;SHT30;69442;51.442;10.564;2024-01-11T00:24:16;-6.99;75.44
80132;SHT30;69442;51.442;10.564;2024-01-11T00:26:41;-6.99;75.64
80132;SHT30;69442;51.442;10.564;2024-01-11T00:29:07;-6.96;75.33
80132;SHT30;69442;51.442;10.564;2024-01-11T00:31:33;-7.01;75.28
80132;SHT30;69442;51.442;10.564;2024-01-11T00:33:58;-7.05;74.61
80132;SHT30;69442;51.442;10.564;2024-01-11T00:36:23;-7.01;75.57
80132;SHT30;69442;51.442;10.564;2024-01-11T00:38:49;-7.03;75.00
80132;SHT30;69442;51.442;10.564;2024-01-11T00:41:14;-7.09;74.79
80132;SHT30;69442;51.442;10.564;2024-01-11T00:43:40;-7.11;74.96
80132;SHT30;69442;51.442;10.564;2024-01-11T00:46:05;-7.13;75.41
80132;SHT30;69442;51.442;10.564;2024-01-11T00:48:31;-7.09;75.91
80132;SHT30;69442;51.442;10.564;2024-01-11T00:50:56;-7.15;75.11
80132;SHT30;69442;51.442;10.564;2024-01-11T00:53:21;-7.13;75.15
80132;SHT30;69442;51.442;10.564;2024-01-11T00:55:47;-7.13;75.43
80132;SHT30;69442;51.442;10.564;2024-01-11T00:58:12;-7.13;75.78
80132;SHT30;69442;51.442;10.564;2024-01-11T01:00:37;-7.13;76.08
80132;SHT30;69442;51.442;10.564;2024-01-11T01:03:03;-7.15;75.68
80132;SHT30;69442;51.442;10.564;2024-01-11T01:05:28;-7.11;76.03
80132;SHT30;69442;51.442;10.564;2024-01-11T01:07:54;-7.13;75.75
80132;SHT30;69442;51.442;10.564;2024-01-11T01:10:19;-7.16;75.59
80132;SHT30;69442;51.442;10.564;2024-01-11T01:12:44;-7.13;76.11
80132;SHT30;69442;51.442;10.564;2024-01-11T01:15:10;-7.13;75.95
80132;SHT30;69442;51.442;10.564;2024-01-11T01:17:35;-7.13;76.13
80132;SHT30;69442;51.442;10.564;2024-01-11T01:20:01;-7.16;75.93
80132;SHT30;69442;51.442;10.564;2024-01-11T01:22:26;-7.20;75.43
80132;SHT30;69442;51.442;10.564;2024-01-11T01:24:51;-7.26;75.38
80132;SHT30;69442;51.442;10.564;2024-01-11T01:27:17;-7.26;75.61
80132;SHT30;69442;51.442;10.564;2024-01-11T01:29:42;-7.33;75.56
80132;SHT30;69442;51.442;10.564;2024-01-11T01:32:08;-7.33;75.79
80132;SHT30;69442;51.442;10.564;2024-01-11T01:34:33;-7.34;75.68
80132;SHT30;69442;51.442;10.564;2024-01-11T01:36:58;-7.34;76.05
80132;SHT30;69442;51.442;10.564;2024-01-11T01:39:24;-7.39;75.29
80132;SHT30;69442;51.442;10.564;2024-01-11T01:41:49;-7.43;75.40
80132;SHT30;69442;51.442;10.564;2024-01-11T01:44:15;-7.41;76.21
80132;SHT30;69442;51.442;10.564;2024-01-11T01:46:40;-7.47;75.64
80132;SHT30;69442;51.442;10.564;2024-01-11T01:49:05;-7.46;76.01
80132;SHT30;69442;51.442;10.564;2024-01-11T01:51:32;-7.48;75.51
80132;SHT30;69442;51.442;10.564;2024-01-11T01:53:58;-7.51;75.37
80132;SHT30;69442;51.442;10.564;2024-01-11T01:56:25;-7.48;75.99
80132;SHT30;69442;51.442;10.564;2024-01-11T01:58:51;-7.50;76.08
80132;SHT30;69442;51.442;10.564;2024-01-11T02:01:19;-7.54;75.68
80132;SHT30;69442;51.442;10.564;2024-01-11T02:03:45;-7.57;75.81
80132;SHT30;69442;51.442;10.564;2024-01-11T02:06:11;-7.54;76.04
80132;SHT30;69442;51.442;10.564;2024-01-11T02:08:37;-7.48;75.87
80132;SHT30;69442;51.442;10.564;2024-01-11T02:11:03;-7.51;75.96
80132;SHT30;69442;51.442;10.564;2024-01-11T02:13:28;-7.46;75.94
80132;SHT30;69442;51.442;10.564;2024-01-11T02:15:54;-7.52;75.42
80132;SHT30;69442;51.442;10.564;2024-01-11T02:18:19;-7.57;75.87
80132;SHT30;69442;51.442;10.564;2024-01-11T02:20:44;-7.59;76.09
80132;SHT30;69442;51.442;10.564;2024-01-11T02:23:17;-7.64;75.84
80132;SHT30;69442;51.442;10.564;2024-01-11T02:25:44;-7.67;75.89
80132;SHT30;69442;51.442;10.564;2024-01-11T02:28:10;-7.70;75.78
80132;SHT30;69442;51.442;10.564;2024-01-11T02:30:36;-7.68;76.03
80132;SHT30;69442;51.442;10.564;2024-01-11T02:33:02;-7.71;75.72
80132;SHT30;69442;51.442;10.564;2024-01-11T02:35:28;-7.77;75.87
80132;SHT30;69442;51.442;10.564;2024-01-11T02:37:54;-7.77;75.92
80132;SHT30;69442;51.442;10.564;2024-01-11T02:40:20;-7.71;76.53
80132;SHT30;69442;51.442;10.564;2024-01-11T02:42:45;-7.68;76.06
80132;SHT30;69442;51.442;10.564;2024-01-11T02:45:11;-7.74;75.88
80132;SHT30;69442;51.442;10.564;2024-01-11T02:47:40;-7.78;76.12
80132;SHT30;69442;51.442;10.564;2024-01-11T02:50:06;-7.82;76.48
80132;SHT30;69442;51.442;10.564;2024-01-11T02:52:33;-7.84;76.51
80132;SHT30;69442;51.442;10.564;2024-01-11T02:54:58;-7.75;76.72
80132;SHT30;69442;51.442;10.564;2024-01-11T02:57:24;-7.68;76.57
80132;SHT30;69442;51.442;10.564;2024-01-11T02:59:49;-7.67;76.40
80132;SHT30;69442;51.442;10.564;2024-01-11T03:02:15;-7.70;76.57
80132;SHT30;69442;51.442;10.564;2024-01-11T03:04:41;-7.61;76.36
80132;SHT30;69442;51.442;10.564;2024-01-11T03:07:06;-7.59;76.07
80132;SHT30;69442;51.442;10.564;2024-01-11T03:09:31;-7.57;76.01
80132;SHT30;69442;51.442;10.564;2024-01-11T03:11:57;-7.62;76.16
80132;SHT30;69442;51.442;10.564;2024-01-11T03:14:22;-7.59;76.06
80132;SHT30;69442;51.442;10.564;2024-01-11T03:16:48;-7.59;76.02
80132;SHT30;69442;51.442;10.564;2024-01-11T03:19:13;-7.58;75.97
80132;SHT30;69442;51.442;10.564;2024-01-11T03:21:45;-7.64;76.05
80132;SHT30;69442;51.442;10.564;2024-01-11T03:24:12;-7.67;76.30
80132;SHT30;69442;51.442;10.564;2024-01-11T03:26:37;-7.70;76.06
80132;SHT30;69442;51.442;10.564;2024-01-11T03:29:02;-7.71;76.15
80132;SHT30;69442;51.442;10.564;2024-01-11T03:31:28;-7.67;76.28
80132;SHT30;69442;51.442;10.564;2024-01-11T03:33:53;-7.64;76.34
80132;SHT30;69442;51.442;10.564;2024-01-11T03:36:23;-7.61;76.08
80132;SHT30;69442;51.442;10.564;2024-01-11T03:38:49;-7.61;76.09
80132;SHT30;69442;51.442;10.564;2024-01-11T03:41:14;-7.58;75.99
80132;SHT30;69442;51.442;10.564;2024-01-11T03:43:39;-7.61;75.97
80132;SHT30;69442;51.442;10.564;2024-01-11T03:46:05;-7.65;76.08
80132;SHT30;69442;51.442;10.564;2024-01-11T03:48:30;-7.67;76.20
80132;SHT30;69442;51.442;10.564;2024-01-11T03:50:56;-7.67;76.15
80132;SHT30;69442;51.442;10.564;2024-01-11T03:53:22;-7.65;76.23
80132;SHT30;69442;51.442;10.564;2024-01-11T03:55:47;-7.62;76.13
80132;SHT30;69442;51.442;10.564;2024-01-11T03:58:13;-7.61;76.09
80132;SHT30;69442;51.442;10.564;2024-01-11T04:00:39;-7.68;76.50
80132;SHT30;69442;51.442;10.564;2024-01-11T04:03:06;-7.70;76.81
80132;SHT30;69442;51.442;10.564;2024-01-11T04:05:31;-7.70;76.41
80132;SHT30;69442;51.442;10.564;2024-01-11T04:07:57;-7.68;76.56
80132;SHT30;69442;51.442;10.564;2024-01-11T04:10:22;-7.65;76.28
80132;SHT30;69442;51.442;10.564;2024-01-11T04:12:47;-7.64;76.08
80132;SHT30;69442;51.442;10.564;2024-01-11T04:15:13;-7.62;76.11
80132;SHT30;69442;51.442;10.564;2024-01-11T04:17:39;-7.70;76.66
80132;SHT30;69442;51.442;10.564;2024-01-11T04:20:06;-7.73;76.55
80132;SHT30;69442;51.442;10.564;2024-01-11T04:22:31;-7.74;76.71
80132;SHT30;69442;51.442;10.564;2024-01-11T04:24:57;-7.75;77.12
80132;SHT30;69442;51.442;10.564;2024-01-11T04:27:22;-7.79;77.24
80132;SHT30;69442;51.442;10.564;2024-01-11T04:29:47;-7.74;76.82
80132;SHT30;69442;51.442;10.564;2024-01-11T04:32:13;-7.74;76.53
80132;SHT30;69442;51.442;10.564;2024-01-11T04:34:38;-7.75;76.48
80132;SHT30;69442;51.442;10.564;2024-01-11T04:37:03;-7.79;77.00
80132;SHT30;69442;51.442;10.564;2024-01-11T04:39:29;-7.84;77.46
80132;SHT30;69442;51.442;10.564;2024-01-11T04:41:54;-7.84;77.19
80132;SHT30;69442;51.442;10.564;2024-01-11T04:44:20;-7.81;76.87
80132;SHT30;69442;51.442;10.564;2024-01-11T04:46:45;-7.79;76.94
80132;SHT30;69442;51.442;10.564;2024-01-11T04:49:10;-7.79;76.82
80132;SHT30;69442;51.442;10.564;2024-01-11T04:51:36;-7.79;76.98
80132;SHT30;69442;51.442;10.564;2024-01-11T04:54:01;-7.77;76.86
80132;SHT30;69442;51.442;10.564;2024-01-11T04:56:26;-7.71;76.47
80132;SHT30;69442;51.442;10.564;2024-01-11T04:58:52;-7.78;76.92
80132;SHT30;69442;51.442;10.564;2024-01-11T05:01:17;-7.77;76.81
80132;SHT30;69442;51.442;10.564;2024-01-11T05:03:48;-7.74;76.49
80132;SHT30;69442;51.442;10.564;2024-01-11T05:06:17;-7.71;76.30
80132;SHT30;69442;51.442;10.564;2024-01-11T05:08:44;-7.70;76.54
80132;SHT30;69442;51.442;10.564;2024-01-11T05:13:41;-7.71;76.20
80132;SHT30;69442;51.442;10.564;2024-01-11T05:16:06;-7.67;76.21
80132;SHT30;69442;51.442;10.564;2024-01-11T05:18:32;-7.70;76.27
80132;SHT30;69442;51.442;10.564;2024-01-11T05:20:57;-7.67;76.21
80132;SHT30;69442;51.442;10.564;2024-01-11T05:23:22;-7.68;76.25
80132;SHT30;69442;51.442;10.564;2024-01-11T05:25:48;-7.68;76.28
80132;SHT30;69442;51.442;10.564;2024-01-11T05:28:13;-7.67;76.29
80132;SHT30;69442;51.442;10.564;2024-01-11T05:30:38;-7.65;76.28
80132;SHT30;69442;51.442;10.564;2024-01-11T05:33:04;-7.65;76.72
80132;SHT30;69442;51.442;10.564;2024-01-11T05:35:29;-7.68;76.97
80132;SHT30;69442;51.442;10.564;2024-01-11T05:37:55;-7.67;76.70
80132;SHT30;69442;51.442;10.564;2024-01-11T05:40:20;-7.70;77.22
80132;SHT30;69442;51.442;10.564;2024-01-11T05:42:46;-7.64;76.66
80132;SHT30;69442;51.442;10.564;2024-01-11T05:45:14;-7.59;76.18
80132;SHT30;69442;51.442;10.564;2024-01-11T05:47:42;-7.58;76.06
80132;SHT30;69442;51.442;10.564;2024-01-11T05:50:08;-7.55;76.41
80132;SHT30;69442;51.442;10.564;2024-01-11T05:52:34;-7.67;77.86
80132;SHT30;69442;51.442;10.564;2024-01-11T05:54:59;-7.64;77.35
80132;SHT30;69442;51.442;10.564;2024-01-11T05:57:24;-7.61;76.61
80132;SHT30;69442;51.442;10.564;2024-01-11T05:59:50;-7.61;76.47
80132;SHT30;69442;51.442;10.564;2024-01-11T06:02:15;-7.61;76.38
80132;SHT30;69442;51.442;10.564;2024-01-11T06:04:43;-7.59;76.38
80132;SHT30;69442;51.442;10.564;2024-01-11T06:07:09;-7.67;76.76
80132;SHT30;69442;51.442;10.564;2024-01-11T06:09:34;-7.74;77.18
80132;SHT30;69442;51.442;10.564;2024-01-11T06:12:00;-7.73;77.44
80132;SHT30;69442;51.442;10.564;2024-01-11T06:14:26;-7.79;77.59
80132;SHT30;69442;51.442;10.564;2024-01-11T06:16:52;-7.77;78.52
80132;SHT30;69442;51.442;10.564;2024-01-11T06:19:17;-7.54;88.37
80132;SHT30;69442;51.442;10.564;2024-01-11T06:21:43;-7.52;89.19
80132;SHT30;69442;51.442;10.564;2024-01-11T06:24:08;-7.58;86.43
80132;SHT30;69442;51.442;10.564;2024-01-11T06:26:34;-7.58;83.47
80132;SHT30;69442;51.442;10.564;2024-01-11T06:28:59;-7.61;80.64
80132;SHT30;69442;51.442;10.564;2024-01-11T06:31:25;-7.52;78.81
80132;SHT30;69442;51.442;10.564;2024-01-11T06:33:51;-7.58;79.27
80132;SHT30;69442;51.442;10.564;2024-01-11T06:36:16;-7.54;77.91
80132;SHT30;69442;51.442;10.564;2024-01-11T06:38:41;-7.50;77.17
80132;SHT30;69442;51.442;10.564;2024-01-11T06:41:07;-7.51;77.20
80132;SHT30;69442;51.442;10.564;2024-01-11T06:43:32;-7.51;76.81
80132;SHT30;69442;51.442;10.564;2024-01-11T06:46:02;-7.50;76.68
80132;SHT30;69442;51.442;10.564;2024-01-11T06:48:28;-7.48;76.66
80132;SHT30;69442;51.442;10.564;2024-01-11T06:50:53;-7.50;77.05
80132;SHT30;69442;51.442;10.564;2024-01-11T06:53:19;-7.48;76.95
80132;SHT30;69442;51.442;10.564;2024-01-11T06:55:44;-7.50;76.78
80132;SHT30;69442;51.442;10.564;2024-01-11T06:58:09;-7.48;76.92
80132;SHT30;69442;51.442;10.564;2024-01-11T07:00:35;-7.46;76.63
80132;SHT30;69442;51.442;10.564;2024-01-11T07:03:00;-7.44;76.47
80132;SHT30;69442;51.442;10.564;2024-01-11T07:05:26;-7.46;76.49
80132;SHT30;69442;51.442;10.564;2024-01-11T07:07:51;-7.48;76.79
80132;SHT30;69442;51.442;10.564;2024-01-11T07:10:17;-7.44;76.59
80132;SHT30;69442;51.442;10.564;2024-01-11T07:12:42;-7.48;78.03
80132;SHT30;69442;51.442;10.564;2024-01-11T07:15:08;-7.48;77.14
80132;SHT30;69442;51.442;10.564;2024-01-11T07:17:34;-7.48;77.49
80132;SHT30;69442;51.442;10.564;2024-01-11T07:19:59;-7.52;78.41
80132;SHT30;69442;51.442;10.564;2024-01-11T07:22:25;-7.51;79.27
80132;SHT30;69442;51.442;10.564;2024-01-11T07:24:52;-7.51;78.18
80132;SHT30;69442;51.442;10.564;2024-01-11T07:27:17;-7.41;77.32
80132;SHT30;69442;51.442;10.564;2024-01-11T07:29:42;-7.43;78.22
80132;SHT30;69442;51.442;10.564;2024-01-11T07:32:08;-7.43;78.55
80132;SHT30;69442;51.442;10.564;2024-01-11T07:34:33;-7.41;77.38
80132;SHT30;69442;51.442;10.564;2024-01-11T07:36:58;-7.46;78.61
80132;SHT30;69442;51.442;10.564;2024-01-11T07:39:24;-7.47;79.19
80132;SHT30;69442;51.442;10.564;2024-01-11T07:41:49;-7.47;78.24
80132;SHT30;69442;51.442;10.564;2024-01-11T07:44:15;-7.40;77.51
80132;SHT30;69442;51.442;10.564;2024-01-11T07:46:40;-7.41;77.48
80132;SHT30;69442;51.442;10.564;2024-01-11T07:49:06;-7.36;77.12
80132;SHT30;69442;51.442;10.564;2024-01-11T07:51:32;-7.34;76.95
80132;SHT30;69442;51.442;10.564;2024-01-11T07:53:59;-7.33;77.04
80132;SHT30;69442;51.442;10.564;2024-01-11T07:56:25;-7.31;77.03
80132;SHT30;69442;51.442;10.564;2024-01-11T07:58:50;-7.30;77.43
80132;SHT30;69442;51.442;10.564;2024-01-11T08:01:16;-7.30;78.21
80132;SHT30;69442;51.442;10.564;2024-01-11T08:03:41;-7.30;77.56
80132;SHT30;69442;51.442;10.564;2024-01-11T08:06:10;-7.29;77.62
80132;SHT30;69442;51.442;10.564;2024-01-11T08:08:35;-7.31;77.34
80132;SHT30;69442;51.442;10.564;2024-01-11T08:11:01;-7.31;77.20
80132;SHT30;69442;51.442;10.564;2024-01-11T08:13:26;-7.27;77.13
80132;SHT30;69442;51.442;10.564;2024-01-11T08:15:52;-7.29;76.98
80132;SHT30;69442;51.442;10.564;2024-01-11T08:18:19;-7.29;77.87
80132;SHT30;69442;51.442;10.564;2024-01-11T08:20:44;-7.27;78.43
80132;SHT30;69442;51.442;10.564;2024-01-11T08:23:09;-7.24;77.39
80132;SHT30;69442;51.442;10.564;2024-01-11T08:25:35;-7.22;77.55
80132;SHT30;69442;51.442;10.564;2024-01-11T08:28:00;-7.20;77.87
80132;SHT30;69442;51.442;10.564;2024-01-11T08:30:26;-7.13;77.27
80132;SHT30;69442;51.442;10.564;2024-01-11T08:32:51;-7.09;78.72
80132;SHT30;69442;51.442;10.564;2024-01-11T08:35:16;-7.01;79.99
80132;SHT30;69442;51.442;10.564;2024-01-11T08:37:42;-6.98;79.71
80132;SHT30;69442;51.442;10.564;2024-01-11T08:40:08;-6.92;79.08
80132;SHT30;69442;51.442;10.564;2024-01-11T08:42:34;-6.88;80.25
80132;SHT30;69442;51.442;10.564;2024-01-11T08:45:00;-6.94;80.65
80132;SHT30;69442;51.442;10.564;2024-01-11T08:47:32;-6.85;79.10
80132;SHT30;69442;51.442;10.564;2024-01-11T08:49:57;-6.78;79.49
80132;SHT30;69442;51.442;10.564;2024-01-11T08:52:22;-6.74;79.61
80132;SHT30;69442;51.442;10.564;2024-01-11T08:54:48;-6.68;78.94
80132;SHT30;69442;51.442;10.564;2024-01-11T08:57:14;-6.66;79.60
80132;SHT30;69442;51.442;10.564;2024-01-11T08:59:40;-6.57;80.63
80132;SHT30;69442;51.442;10.564;2024-01-11T09:02:06;-6.56;81.40
80132;SHT30;69442;51.442;10.564;2024-01-11T09:04:32;-6.57;80.50
80132;SHT30;69442;51.442;10.564;2024-01-11T09:06:58;-6.51;78.23
80132;SHT30;69442;51.442;10.564;2024-01-11T09:09:25;-6.49;79.79
80132;SHT30;69442;51.442;10.564;2024-01-11T09:11:50;-6.42;80.34
80132;SHT30;69442;51.442;10.564;2024-01-11T09:14:15;-6.39;80.23
80132;SHT30;69442;51.442;10.564;2024-01-11T09:16:41;-6.36;79.72
80132;SHT30;69442;51.442;10.564;2024-01-11T09:19:06;-6.30;78.27
80132;SHT30;69442;51.442;10.564;2024-01-11T09:21:32;-6.26;77.71
80132;SHT30;69442;51.442;10.564;2024-01-11T09:23:57;-6.22;79.60
80132;SHT30;69442;51.442;10.564;2024-01-11T09:26:23;-6.18;79.27
80132;SHT30;69442;51.442;10.564;2024-01-11T09:28:48;-6.09;79.93
80132;SHT30;69442;51.442;10.564;2024-01-11T09:31:14;-6.06;80.49
80132;SHT30;69442;51.442;10.564;2024-01-11T09:33:39;-6.02;80.36
80132;SHT30;69442;51.442;10.564;2024-01-11T09:36:05;-5.97;78.41
80132;SHT30;69442;51.442;10.564;2024-01-11T09:38:31;-5.97;77.63
80132;SHT30;69442;51.442;10.564;2024-01-11T09:41:11;-5.95;78.86
80132;SHT30;69442;51.442;10.564;2024-01-11T09:43:37;-5.91;78.47
80132;SHT30;69442;51.442;10.564;2024-01-11T09:46:06;-5.87;78.94
80132;SHT30;69442;51.442;10.564;2024-01-11T09:48:35;-5.83;77.85
80132;SHT30;69442;51.442;10.564;2024-01-11T09:51:02;-5.81;77.83
80132;SHT30;69442;51.442;10.564;2024-01-11T09:53:32;-5.70;80.29
80132;SHT30;69442;51.442;10.564;2024-01-11T09:55:58;-5.69;78.13
80132;SHT30;69442;51.442;10.564;2024-01-11T09:58:24;-5.63;78.03
80132;SHT30;69442;51.442;10.564;2024-01-11T10:00:55;-5.60;78.28
80132;SHT30;69442;51.442;10.564;2024-01-11T10:03:22;-5.48;81.44
80132;SHT30;69442;51.442;10.564;2024-01-11T10:05:49;-5.40;81.74
80132;SHT30;69442;51.442;10.564;2024-01-11T10:08:18;-5.32;81.80
80132;SHT30;69442;51.442;10.564;2024-01-11T10:10:44;-5.31;80.90
80132;SHT30;69442;51.442;10.564;2024-01-11T10:13:09;-5.31;80.41
80132;SHT30;69442;51.442;10.564;2024-01-11T10:15:36;-5.33;78.66
80132;SHT30;69442;51.442;10.564;2024-01-11T10:18:01;-5.31;78.70
80132;SHT30;69442;51.442;10.564;2024-01-11T10:20:27;-5.25;79.30
80132;SHT30;69442;51.442;10.564;2024-01-11T10:22:56;-5.22;80.27
80132;SHT30;69442;51.442;10.564;2024-01-11T10:25:22;-5.15;80.97
80132;SHT30;69442;51.442;10.564;2024-01-11T10:27:50;-5.12;80.94
80132;SHT30;69442;51.442;10.564;2024-01-11T10:30:16;-5.08;80.45
80132;SHT30;69442;51.442;10.564;2024-01-11T10:32:43;-5.05;80.04
80132;SHT30;69442;51.442;10.564;2024-01-11T10:35:08;-5.00;79.64
80132;SHT30;69442;51.442;10.564;2024-01-11T10:37:36;-4.94;79.55
80132;SHT30;69442;51.442;10.564;2024-01-11T10:40:06;-4.88;79.82
80132;SHT30;69442;51.442;10.564;2024-01-11T10:42:38;-4.86;80.00
80132;SHT30;69442;51.442;10.564;2024-01-11T10:45:11;-4.80;79.67
80132;SHT30;69442;51.442;10.564;2024-01-11T10:47:56;-4.66;80.70
80132;SHT30;69442;51.442;10.564;2024-01-11T10:50:26;-4.63;79.09
80132;SHT30;69442;51.442;10.564;2024-01-11T10:53:02;-4.62;79.40
80132;SHT30;69442;51.442;10.564;2024-01-11T10:55:31;-4.53;80.23
80132;SHT30;69442;51.442;10.564;2024-01-11T10:57:58;-4.48;79.83
80132;SHT30;69442;51.442;10.564;2024-01-11T11:00:25;-4.44;79.17
80132;SHT30;69442;51.442;10.564;2024-01-11T11:02:54;-4.42;78.87
80132;SHT30;69442;51.442;10.564;2024-01-11T11:05:20;-4.38;78.80
80132;SHT30;69442;51.442;10.564;2024-01-11T11:07:49;-4.32;78.39
80132;SHT30;69442;51.442;10.564;2024-01-11T11:10:17;-4.19;77.51
80132;SHT30;69442;51.442;10.564;2024-01-11T11:12:45;-4.15;77.98
80132;SHT30;69442;51.442;10.564;2024-01-11T11:15:12;-4.15;77.88
80132;SHT30;69442;51.442;10.564;2024-01-11T11:17:41;-4.14;78.02
80132;SHT30;69442;51.442;10.564;2024-01-11T11:20:08;-4.11;78.13
80132;SHT30;69442;51.442;10.564;2024-01-11T11:22:34;-3.99;77.32
80132;SHT30;69442;51.442;10.564;2024-01-11T11:25:08;-3.82;75.37
80132;SHT30;69442;51.442;10.564;2024-01-11T11:27:33;-3.83;76.25
80132;SHT30;69442;51.442;10.564;2024-01-11T11:29:59;-3.72;75.94
80132;SHT30;69442;51.442;10.564;2024-01-11T11:32:37;-3.58;75.01
80132;SHT30;69442;51.442;10.564;2024-01-11T11:35:04;-3.45;75.13
80132;SHT30;69442;51.442;10.564;2024-01-11T11:37:30;-3.40;74.81
80132;SHT30;69442;51.442;10.564;2024-01-11T11:40:00;-3.43;74.97
80132;SHT30;69442;51.442;10.564;2024-01-11T11:42:26;-3.44;75.79
80132;SHT30;69442;51.442;10.564;2024-01-11T11:44:52;-3.48;76.90
80132;SHT30;69442;51.442;10.564;2024-01-11T11:47:23;-3.47;76.60
80132;SHT30;69442;51.442;10.564;2024-01-11T11:52:30;-3.44;77.57
80132;SHT30;69442;51.442;10.564;2024-01-11T11:54:57;-3.40;77.13
80132;SHT30;69442;51.442;10.564;2024-01-11T11:57:23;-3.35;77.43
80132;SHT30;69442;51.442;10.564;2024-01-11T11:59:49;-3.31;76.42
80132;SHT30;69442;51.442;10.564;2024-01-11T12:02:16;-3.27;77.31
80132;SHT30;69442;51.442;10.564;2024-01-11T12:04:47;-3.23;77.61
80132;SHT30;69442;51.442;10.564;2024-01-11T12:07:12;-3.21;77.57
80132;SHT30;69442;51.442;10.564;2024-01-11T12:09:38;-3.17;77.59
80132;SHT30;69442;51.442;10.564;2024-01-11T12:12:04;-3.13;77.69
80132;SHT30;69442;51.442;10.564;2024-01-11T12:14:29;-3.06;76.53
80132;SHT30;69442;51.442;10.564;2024-01-11T12:16:56;-3.07;76.22
80132;SHT30;69442;51.442;10.564;2024-01-11T12:19:23;-2.99;75.57
80132;SHT30;69442;51.442;10.564;2024-01-11T12:21:49;-2.96;74.79
80132;SHT30;69442;51.442;10.564;2024-01-11T12:24:16;-2.92;76.53
80132;SHT30;69442;51.442;10.564;2024-01-11T12:26:42;-2.90;75.66
80132;SHT30;69442;51.442;10.564;2024-01-11T12:29:08;-2.89;76.45
80132;SHT30;69442;51.442;10.564;2024-01-11T12:31:34;-2.85;76.86
80132;SHT30;69442;51.442;10.564;2024-01-11T12:34:03;-2.81;76.05
80132;SHT30;69442;51.442;10.564;2024-01-11T12:36:29;-2.73;76.72
80132;SHT30;69442;51.442;10.564;2024-01-11T12:38:55;-2.68;76.20
80132;SHT30;69442;51.442;10.564;2024-01-11T12:41:24;-2.68;73.71
80132;SHT30;69442;51.442;10.564;2024-01-11T12:43:49;-2.58;74.54
80132;SHT30;69442;51.442;10.564;2024-01-11T12:46:15;-2.54;72.34
80132;SHT30;69442;51.442;10.564;2024-01-11T12:48:41;-2.47;74.17
80132;SHT30;69442;51.442;10.564;2024-01-11T12:51:07;-2.41;67.26
80132;SHT30;69442;51.442;10.564;2024-01-11T12:53:32;-2.34;68.06
80132;SHT30;69442;51.442;10.564;2024-01-11T12:56:06;-2.33;73.61
80132;SHT30;69442;51.442;10.564;2024-01-11T12:58:39;-2.30;74.37
80132;SHT30;69442;51.442;10.564;2024-01-11T13:01:08;-2.30;74.21
80132;SHT30;69442;51.442;10.564;2024-01-11T13:03:38;-2.26;74.13
80132;SHT30;69442;51.442;10.564;2024-01-11T13:06:03;-2.22;73.88
80132;SHT30;69442;51.442;10.564;2024-01-11T13:08:32;-2.20;74.60
80132;SHT30;69442;51.442;10.564;2024-01-11T13:10:57;-2.14;72.01
80132;SHT30;69442;51.442;10.564;2024-01-11T13:13:23;-2.11;72.11
80132;SHT30;69442;51.442;10.564;2024-01-11T13:15:48;-2.09;70.57
80132;SHT30;69442;51.442;10.564;2024-01-11T13:18:14;-2.06;68.22
80132;SHT30;69442;51.442;10.564;2024-01-11T13:20:39;-2.00;72.20
80132;SHT30;69442;51.442;10.564;2024-01-11T13:23:31;-1.99;75.08
80132;SHT30;69442;51.442;10.564;2024-01-11T13:25:57;-1.99;74.38
80132;SHT30;69442;51.442;10.564;2024-01-11T13:28:22;-1.95;74.74
80132;SHT30;69442;51.442;10.564;2024-01-11T13:30:48;-1.93;75.07
80132;SHT30;69442;51.442;10.564;2024-01-11T13:33:16;-1.91;76.72
80132;SHT30;69442;51.442;10.564;2024-01-11T13:35:43;-1.89;77.25
80132;SHT30;69442;51.442;10.564;2024-01-11T13:38:09;-1.86;75.76
80132;SHT30;69442;51.442;10.564;2024-01-11T13:40:34;-1.82;76.99
80132;SHT30;69442;51.442;10.564;2024-01-11T13:43:00;-1.81;76.30
80132;SHT30;69442;51.442;10.564;2024-01-11T13:45:29;-1.77;77.38
80132;SHT30;69442;51.442;10.564;2024-01-11T13:47:59;-1.74;77.54
80132;SHT30;69442;51.442;10.564;2024-01-11T13:50:24;-1.68;76.73
80132;SHT30;69442;51.442;10.564;2024-01-11T13:52:50;-1.71;74.52
80132;SHT30;69442;51.442;10.564;2024-01-11T13:55:16;-1.67;76.22
80132;SHT30;69442;51.442;10.564;2024-01-11T13:57:43;-1.67;76.64
80132;SHT30;69442;51.442;10.564;2024-01-11T14:00:10;-1.65;76.44
80132;SHT30;69442;51.442;10.564;2024-01-11T14:02:37;-1.67;75.96
80132;SHT30;69442;51.442;10.564;2024-01-11T14:05:03;-1.65;72.62
80132;SHT30;69442;51.442;10.564;2024-01-11T14:07:29;-1.65;73.24
80132;SHT30;69442;51.442;10.564;2024-01-11T14:09:55;-1.61;76.48
80132;SHT30;69442;51.442;10.564;2024-01-11T14:12:23;-1.61;78.10
80132;SHT30;69442;51.442;10.564;2024-01-11T14:14:49;-1.58;77.54
80132;SHT30;69442;51.442;10.564;2024-01-11T14:17:14;-1.57;77.60
80132;SHT30;69442;51.442;10.564;2024-01-11T14:19:39;-1.57;76.78
80132;SHT30;69442;51.442;10.564;2024-01-11T14:22:05;-1.56;76.12
80132;SHT30;69442;51.442;10.564;2024-01-11T14:24:30;-1.51;75.71
80132;SHT30;69442;51.442;10.564;2024-01-11T14:26:56;-1.54;73.82
80132;SHT30;69442;51.442;10.564;2024-01-11T14:29:21;-1.54;75.81
80132;SHT30;69442;51.442;10.564;2024-01-11T14:31:47;-1.54;75.71
80132;SHT30;69442;51.442;10.564;2024-01-11T14:34:13;-1.54;76.21
80132;SHT30;69442;51.442;10.564;2024-01-11T14:36:38;-1.56;75.82
80132;SHT30;69442;51.442;10.564;2024-01-11T14:39:04;-1.54;77.09
80132;SHT30;69442;51.442;10.564;2024-01-11T14:41:30;-1.51;77.36
80132;SHT30;69442;51.442;10.564;2024-01-11T14:43:56;-1.57;75.72
80132;SHT30;69442;51.442;10.564;2024-01-11T14:46:21;-1.53;76.60
80132;SHT30;69442;51.442;10.564;2024-01-11T14:48:47;-1.56;77.18
80132;SHT30;69442;51.442;10.564;2024-01-11T14:51:13;-1.56;77.68
80132;SHT30;69442;51.442;10.564;2024-01-11T14:53:39;-1.53;77.73
80132;SHT30;69442;51.442;10.564;2024-01-11T14:56:05;-1.51;78.87
80132;SHT30;69442;51.442;10.564;2024-01-11T14:58:31;-1.50;78.62
80132;SHT30;69442;51.442;10.564;2024-01-11T15:00:56;-1.53;77.24
80132;SHT30;69442;51.442;10.564;2024-01-11T15:03:22;-1.54;76.70
80132;SHT30;69442;51.442;10.564;2024-01-11T15:05:47;-1.56;76.89
80132;SHT30;69442;51.442;10.564;2024-01-11T15:08:13;-1.51;78.16
80132;SHT30;69442;51.442;10.564;2024-01-11T15:10:38;-1.56;78.23
80132;SHT30;69442;51.442;10.564;2024-01-11T15:13:04;-1.53;78.35
80132;SHT30;69442;51.442;10.564;2024-01-11T15:15:29;-1.54;77.76